createdAt,value
2023-08-04T00:01:43.551Z,99404.73
2023-08-04T00:03:49.437Z,99404.66
2023-08-04T00:05:54.759Z,99406.86
2023-08-04T00:08:00.111Z,99408.6
2023-08-04T00:10:05.540Z,99416.38
2023-08-04T00:12:10.977Z,99418.7
2023-08-04T00:14:16.315Z,99419.94
2023-08-04T00:16:21.583Z,99418.7
2023-08-04T00:18:27.060Z,99413.03
2023-08-04T00:20:32.224Z,99408.35
2023-08-04T00:22:37.781Z,99406.93
2023-08-04T00:24:43.224Z,99406.16
2023-08-04T00:26:48.540Z,99409.52
2023-08-04T00:28:53.764Z,99409.62
2023-08-04T00:30:59.129Z,99408.44
2023-08-04T00:33:04.934Z,99410.55
2023-08-04T00:35:10.219Z,99411.29
2023-08-04T00:37:15.656Z,99412.9
2023-08-04T00:39:21.096Z,99413.81
2023-08-04T00:41:26.640Z,99417.23
2023-08-04T00:43:32.013Z,99414.81
2023-08-04T00:45:37.419Z,99414.56
2023-08-04T00:47:43.026Z,99421.46
2023-08-04T00:49:48.609Z,99422.15
2023-08-04T00:51:54.088Z,99420.64
2023-08-04T00:53:59.475Z,99418.46
2023-08-04T00:56:04.998Z,99422.24
2023-08-04T00:58:10.310Z,99415.91
2023-08-04T01:00:15.657Z,99417.05
2023-08-04T01:02:21.332Z,99420.7
2023-08-04T01:04:26.812Z,99417.48
2023-08-04T01:06:32.127Z,99434.69
2023-08-04T01:08:37.517Z,99434.13
2023-08-04T01:10:42.808Z,99435.34
2023-08-04T01:12:48.198Z,99435.73
2023-08-04T01:14:53.798Z,99435.09
2023-08-04T01:16:59.124Z,99431.16
2023-08-04T01:19:04.779Z,99429.48
2023-08-04T01:21:10.220Z,99436.17
2023-08-04T01:23:15.691Z,99439.6
2023-08-04T01:25:21.096Z,99442.91
2023-08-04T01:27:26.532Z,99448.41
2023-08-04T01:29:31.926Z,99451.36
2023-08-04T01:31:37.212Z,99456.27
2023-08-04T01:33:42.680Z,99459.19
2023-08-04T01:35:48.157Z,99466.48
2023-08-04T01:37:53.413Z,99463.11
2023-08-04T01:39:58.757Z,99462.88
2023-08-04T01:42:03.926Z,99463.16
2023-08-04T01:44:09.117Z,99464.77
2023-08-04T01:46:14.498Z,99466.33
2023-08-04T01:48:20.014Z,99460.64
2023-08-04T01:50:25.548Z,99450.77
2023-08-04T01:52:30.683Z,99449.91
2023-08-04T01:54:36.030Z,99445.28
2023-08-04T01:56:41.455Z,99448.74
2023-08-04T01:58:46.932Z,99451.49
2023-08-04T02:02:51.997Z,99452.31
2023-08-04T02:04:57.699Z,99450.33
2023-08-04T02:07:03.136Z,99452.51
2023-08-04T02:09:08.735Z,99450.45
2023-08-04T02:11:14.020Z,99451.74
2023-08-04T02:13:19.401Z,99456.7
2023-08-04T02:15:24.793Z,99454.98
2023-08-04T02:17:30.384Z,99464.92
2023-08-04T02:19:35.822Z,99464.81
2023-08-04T02:21:41.163Z,99465.64
2023-08-04T02:23:46.398Z,99472.59
2023-08-04T02:25:51.583Z,99473.51
2023-08-04T02:27:56.832Z,99477.61
2023-08-04T02:30:02.266Z,99477.55
2023-08-04T02:32:07.774Z,99474.3
2023-08-04T02:34:13.275Z,99481.09
2023-08-04T02:36:18.811Z,99487.14
2023-08-04T02:38:24.127Z,99488.36
2023-08-04T02:40:29.655Z,99490.69
2023-08-04T02:42:35.316Z,99490.03
2023-08-04T02:44:40.760Z,99490.67
2023-08-04T02:46:46.062Z,99499.56
2023-08-04T02:48:51.319Z,99497.28
2023-08-04T02:50:56.595Z,99493.34
2023-08-04T02:53:02.005Z,99495.51
2023-08-04T02:55:07.456Z,99491.86
2023-08-04T02:57:12.900Z,99492.31
2023-08-04T02:59:18.223Z,99484.05
2023-08-04T03:01:23.662Z,99485.13
2023-08-04T03:03:29.123Z,99480.52
2023-08-04T03:05:34.495Z,99489.34
2023-08-04T03:07:39.890Z,99487.23
2023-08-04T03:09:45.222Z,99495.03
2023-08-04T03:11:50.654Z,99497.49
2023-08-04T03:13:56.029Z,99503.27
2023-08-04T03:16:01.486Z,99502.86
2023-08-04T03:18:06.980Z,99505.82
2023-08-04T03:20:12.324Z,99502.09
2023-08-04T03:22:17.562Z,99498.75
2023-08-04T03:24:22.890Z,99502.02
2023-08-04T03:26:28.440Z,99517.42
2023-08-04T03:28:33.785Z,99527.75
2023-08-04T03:30:39.213Z,99531.57
2023-08-04T03:32:44.622Z,99536.18
2023-08-04T03:34:49.997Z,99540.97
2023-08-04T03:36:55.323Z,99534.88
2023-08-04T03:39:00.788Z,99531.74
2023-08-04T03:41:06.055Z,99534.3
2023-08-04T03:43:11.444Z,99536.52
2023-08-04T03:45:16.894Z,99537.55
2023-08-04T03:47:22.392Z,99536.3
2023-08-04T03:49:27.712Z,99536.52
2023-08-04T03:51:33.110Z,99535.64
2023-08-04T03:53:38.558Z,99535.28
2023-08-04T03:55:43.981Z,99533.91
2023-08-04T03:57:49.557Z,99533.66
2023-08-04T03:59:54.859Z,99537.31
2023-08-04T04:02:00.238Z,99543.53
2023-08-04T04:04:05.541Z,99540.22
2023-08-04T04:06:11.092Z,99538.8
2023-08-04T04:08:16.418Z,99533.42
2023-08-04T04:10:21.663Z,99534.91
2023-08-04T04:12:27.048Z,99548.95
2023-08-04T04:14:32.498Z,99551.02
2023-08-04T04:16:38.011Z,99549
2023-08-04T04:18:43.397Z,99551.47
2023-08-04T04:20:48.603Z,99565.96
2023-08-04T04:22:54.099Z,99569.99
2023-08-04T04:24:59.529Z,99568.32
2023-08-04T04:27:04.941Z,99567.15
2023-08-04T04:29:10.420Z,99567.7
2023-08-04T04:31:15.811Z,99569.75
2023-08-04T04:33:24.529Z,99564.38
2023-08-04T04:35:29.920Z,99564.27
2023-08-04T04:37:35.246Z,99565.59
2023-08-04T04:39:40.810Z,99564.78
2023-08-04T04:41:47.065Z,99560.27
2023-08-04T04:43:52.698Z,99561.64
2023-08-04T04:45:58.075Z,99563.16
2023-08-04T04:48:04.175Z,99559.95
2023-08-04T04:50:09.626Z,99562.06
2023-08-04T04:52:14.962Z,99561.17
2023-08-04T04:54:20.229Z,99556.75
2023-08-04T04:56:25.706Z,99554.67
2023-08-04T04:58:31.142Z,99557
2023-08-04T05:00:36.434Z,99566.66
2023-08-04T05:02:41.773Z,99569.59
2023-08-04T05:04:46.988Z,99583.55
2023-08-04T05:06:52.238Z,99592.81
2023-08-04T05:08:57.674Z,99588.16
2023-08-04T05:11:03.237Z,99587.98
2023-08-04T05:13:08.766Z,99587.86
2023-08-04T05:15:14.206Z,99590.83
2023-08-04T05:17:19.467Z,99593.04
2023-08-04T05:19:24.986Z,99596.39
2023-08-04T05:21:30.264Z,99590.92
2023-08-04T05:23:35.560Z,99593.26
2023-08-04T05:25:40.937Z,99596.58
2023-08-04T05:27:46.129Z,99605.48
2023-08-04T05:29:51.532Z,99604.66
2023-08-04T05:31:56.784Z,99608.58
2023-08-04T05:34:02.027Z,99608.88
2023-08-04T05:36:07.327Z,99610.97
2023-08-04T05:38:12.497Z,99615.53
2023-08-04T05:40:17.764Z,99621.89
2023-08-04T05:42:23.074Z,99621.19
2023-08-04T05:44:28.528Z,99621.53
2023-08-04T05:46:33.864Z,99621.8
2023-08-04T05:48:39.305Z,99626.95
2023-08-04T05:50:45.917Z,99625.38
2023-08-04T05:52:51.411Z,99628.58
2023-08-04T05:54:56.842Z,99633.38
2023-08-04T05:57:02.288Z,99633.19
2023-08-04T05:59:07.947Z,99632.92
2023-08-04T06:01:13.434Z,99628.14
2023-08-04T06:03:19.034Z,99627.76
2023-08-04T06:05:24.410Z,99629.09
2023-08-04T06:07:29.786Z,99625.78
2023-08-04T06:09:35.028Z,99624.49
2023-08-04T06:11:40.369Z,99620.37
2023-08-04T06:13:45.740Z,99616.34
2023-08-04T06:15:51.048Z,99621.48
2023-08-04T06:17:56.428Z,99620.44
2023-08-04T06:20:01.885Z,99617.73
2023-08-04T06:22:07.283Z,99621.67
2023-08-04T06:24:13.125Z,99626.03
2023-08-04T06:26:18.658Z,99633.88
2023-08-04T06:28:24.708Z,99641.91
2023-08-04T06:30:30.160Z,99643.79
2023-08-04T06:32:35.503Z,99650.55
2023-08-04T06:34:41.139Z,99652.65
2023-08-04T06:36:46.577Z,99650.7
2023-08-04T06:38:51.868Z,99653.89
2023-08-04T06:40:56.936Z,99651.45
2023-08-04T06:43:02.391Z,99648.33
2023-08-04T06:45:07.831Z,99656.81
2023-08-04T06:47:13.305Z,99659.62
2023-08-04T06:49:18.450Z,99657.94
2023-08-04T06:51:23.736Z,99659.36
2023-08-04T06:53:29.131Z,99660.47
2023-08-04T06:55:34.624Z,99669.77
2023-08-04T06:57:40.023Z,99671.91
2023-08-04T06:59:45.498Z,99674.41
2023-08-04T07:01:51.799Z,99683.45
2023-08-04T07:03:57.513Z,99681.09
2023-08-04T07:06:02.948Z,99682.02
2023-08-04T07:08:08.419Z,99680.05
2023-08-04T07:10:13.890Z,99677.14
2023-08-04T07:12:19.302Z,99680.41
2023-08-04T07:14:24.517Z,99684.15
2023-08-04T07:16:29.905Z,99687.66
2023-08-04T07:18:35.190Z,99685.89
2023-08-04T07:20:40.727Z,99685.64
2023-08-04T07:22:46.280Z,99688.39
2023-08-04T07:24:51.567Z,99687.22
2023-08-04T07:26:56.959Z,99689.64
2023-08-04T07:29:02.272Z,99687.17
2023-08-04T07:31:07.569Z,99685.52
2023-08-04T07:33:13.174Z,99688.84
2023-08-04T07:35:18.560Z,99693.77
2023-08-04T07:37:23.893Z,99694.11
2023-08-04T07:39:29.382Z,99697.38
2023-08-04T07:41:36.152Z,99699.16
2023-08-04T07:43:41.488Z,99697.89
2023-08-04T07:45:46.877Z,99699.14
2023-08-04T07:47:52.416Z,99700.1
2023-08-04T07:49:57.767Z,99704.92
2023-08-04T07:52:03.154Z,99709.66
2023-08-04T07:54:08.503Z,99708.25
2023-08-04T07:56:13.835Z,99715.5
2023-08-04T07:58:19.114Z,99712.09
2023-08-04T08:00:24.527Z,99717.29
2023-08-04T08:02:30.102Z,99713.61
2023-08-04T08:04:35.596Z,99716.22
2023-08-04T08:06:41.600Z,99713.09
2023-08-04T08:08:47.150Z,99711.81
2023-08-04T08:10:52.481Z,99714.98
2023-08-04T08:12:57.862Z,99711.55
2023-08-04T08:15:03.175Z,99710.2
2023-08-04T08:17:08.744Z,99719.26
2023-08-04T08:19:14.133Z,99720.31
2023-08-04T08:21:19.425Z,99720.98
2023-08-04T08:23:24.760Z,99716.11
2023-08-04T08:25:30.087Z,99711.9
2023-08-04T08:27:35.526Z,99711.81
2023-08-04T08:29:41.172Z,99711.02
2023-08-04T08:31:47.028Z,99708.88
2023-08-04T08:33:53.113Z,99708.93
2023-08-04T08:35:58.437Z,99712.13
2023-08-04T08:38:04.104Z,99712.12
2023-08-04T08:40:09.508Z,99715.67
2023-08-04T08:42:14.865Z,99718.54
2023-08-04T08:44:20.300Z,99718.91
2023-08-04T08:46:25.753Z,99720.84
2023-08-04T08:48:31.479Z,99721.88
2023-08-04T08:50:37.021Z,99724.32
2023-08-04T08:52:42.359Z,99725.05
2023-08-04T08:54:47.718Z,99727.52
2023-08-04T08:56:53.040Z,99731.98
2023-08-04T08:58:58.572Z,99726.98
2023-08-04T09:01:04.016Z,99737.44
2023-08-04T09:03:09.512Z,99731.17
2023-08-04T09:05:15.590Z,99725.53
2023-08-04T09:07:21.050Z,99732.24
2023-08-04T09:09:26.290Z,99731.3
2023-08-04T09:11:31.473Z,99737.87
2023-08-04T09:13:36.896Z,99730.14
2023-08-04T09:15:42.202Z,99729.09
2023-08-04T09:17:47.613Z,99732.73
2023-08-04T09:19:53.081Z,99731.18
2023-08-04T09:21:58.629Z,99738.69
2023-08-04T09:24:04.064Z,99738.05
2023-08-04T09:26:09.766Z,99739.98
2023-08-04T09:28:15.368Z,99739.44
2023-08-04T09:30:20.908Z,99741.56
2023-08-04T09:32:26.329Z,99746.33
2023-08-04T09:34:31.683Z,99743.97
2023-08-04T09:36:37.324Z,99741.75
2023-08-04T09:38:42.759Z,99738.38
2023-08-04T09:40:48.101Z,99738.97
2023-08-04T09:42:53.544Z,99733.77
2023-08-04T09:44:58.942Z,99725.99
2023-08-04T09:47:04.324Z,99725.55
2023-08-04T09:49:10.337Z,99730.44
2023-08-04T09:51:15.744Z,99723.78
2023-08-04T09:53:21.242Z,99723.52
2023-08-04T09:55:26.581Z,99727.53
2023-08-04T09:57:31.921Z,99731.83
2023-08-04T09:59:37.269Z,99734.9
2023-08-04T10:01:43.335Z,99725.36
2023-08-04T10:03:49.142Z,99725.23
2023-08-04T10:05:54.709Z,99724.67
2023-08-04T10:08:00.288Z,99721.48
2023-08-04T10:10:08.728Z,99724.18
2023-08-04T10:12:14.167Z,99723.13
2023-08-04T10:14:19.537Z,99721.41
2023-08-04T10:16:25.166Z,99722.75
2023-08-04T10:18:30.823Z,99722.38
2023-08-04T10:20:36.276Z,99711.27
2023-08-04T10:22:41.692Z,99726.13
2023-08-04T10:24:47.087Z,99714.54
2023-08-04T10:26:52.641Z,99710.13
2023-08-04T10:28:58.508Z,99703.53
2023-08-04T10:31:03.999Z,99699.75
2023-08-04T10:33:09.430Z,99703.91
2023-08-04T10:35:14.853Z,99700.14
2023-08-04T10:37:20.320Z,99701.77
2023-08-04T10:39:25.652Z,99695.36
2023-08-04T10:41:33.951Z,99699.98
2023-08-04T10:43:39.525Z,99698.3
2023-08-04T10:45:45.041Z,99708.2
2023-08-04T10:48:11.917Z,99708.81
2023-08-04T10:50:17.811Z,99714.12
2023-08-04T10:52:23.080Z,99714.13
2023-08-04T10:54:28.609Z,99710.41
2023-08-04T10:56:34.158Z,99716.69
2023-08-04T10:58:39.511Z,99724.6
2023-08-04T11:00:44.833Z,99722.1
2023-08-04T11:02:50.207Z,99712.98
2023-08-04T11:04:55.753Z,99712.61
2023-08-04T11:07:01.352Z,99707.58
2023-08-04T11:09:06.804Z,99700.79
2023-08-04T11:11:12.587Z,99704.2
2023-08-04T11:13:18.077Z,99721.86
2023-08-04T11:15:23.590Z,99722.95
2023-08-04T11:17:29.345Z,99733.33
2023-08-04T11:19:34.910Z,99736.06
2023-08-04T11:21:42.978Z,99737.77
2023-08-04T11:23:48.271Z,99736.08
2023-08-04T11:25:53.884Z,99742.36
2023-08-04T11:27:59.512Z,99743.8
2023-08-04T11:30:04.796Z,99747.41
2023-08-04T11:32:10.222Z,99748.66
2023-08-04T11:34:15.776Z,99752.54
2023-08-04T11:36:21.056Z,99753.25
2023-08-04T11:38:26.751Z,99753.67
2023-08-04T11:40:32.084Z,99751.3
2023-08-04T11:42:37.630Z,99749.5
2023-08-04T11:44:43.173Z,99747.46
2023-08-04T11:46:48.759Z,99754.61
2023-08-04T11:48:54.367Z,99754.14
2023-08-04T11:50:59.938Z,99755.23
2023-08-04T11:53:05.481Z,99747.99
2023-08-04T11:55:11.392Z,99759.05
2023-08-04T11:57:16.849Z,99762.55
2023-08-04T11:59:22.248Z,99772.16
2023-08-04T12:01:27.658Z,99766.81
2023-08-04T12:03:33.551Z,99760.03
2023-08-04T12:05:39.836Z,99761.47
2023-08-04T12:07:45.727Z,99759.31
2023-08-04T12:09:51.334Z,99760.93
2023-08-04T12:11:56.888Z,99767.98
2023-08-04T12:14:02.212Z,99754
2023-08-04T12:16:07.757Z,99758.95
2023-08-04T12:18:13.432Z,99754.51
2023-08-04T12:20:19.172Z,99759.02
2023-08-04T12:22:24.578Z,99761.99
2023-08-04T12:24:30.127Z,99758.52
2023-08-04T12:26:35.458Z,99761.19
2023-08-04T12:28:40.998Z,99758.58
2023-08-04T12:31:08.660Z,99753.73
2023-08-04T12:33:20.903Z,99744.88
2023-08-04T12:35:26.508Z,99743.63
2023-08-04T12:37:31.845Z,99739.3
2023-08-04T12:39:37.293Z,99745.98
2023-08-04T12:41:42.770Z,99758.34
2023-08-04T12:43:48.178Z,99762.03
2023-08-04T12:45:55.419Z,99767.19
2023-08-04T12:48:01.190Z,99765.27
2023-08-04T12:50:06.832Z,99755.98
2023-08-04T12:52:12.218Z,99751.73
2023-08-04T12:54:17.364Z,99748.56
2023-08-04T12:56:23.029Z,99746.8
2023-08-04T12:58:30.940Z,99748.29
2023-08-04T13:00:37.425Z,99753.91
2023-08-04T13:02:42.940Z,99755.7
2023-08-04T13:04:48.769Z,99758.2
2023-08-04T13:06:54.476Z,99769.69
2023-08-04T13:08:59.811Z,99768.89
2023-08-04T13:11:05.467Z,99775.48
2023-08-04T13:13:10.983Z,99779.92
2023-08-04T13:15:16.429Z,99789.29
2023-08-04T13:17:21.769Z,99784.76
2023-08-04T13:19:27.055Z,99787.52
2023-08-04T13:21:32.446Z,99788.67
2023-08-04T13:23:37.792Z,99786.58
2023-08-04T13:25:43.341Z,99789.47
2023-08-04T13:27:48.904Z,99794.36
2023-08-04T13:29:54.466Z,99797.52
2023-08-04T13:31:59.978Z,99796.77
2023-08-04T13:34:09.461Z,99794.25
2023-08-04T13:36:14.972Z,99798.22
2023-08-04T13:38:20.440Z,99798.28
2023-08-04T13:40:25.847Z,99805.37
2023-08-04T13:42:31.468Z,99801.88
2023-08-04T13:44:37.092Z,99800.7
2023-08-04T13:46:42.556Z,99786.7
2023-08-04T13:48:47.988Z,99802.87
2023-08-04T13:50:53.376Z,99804.89
2023-08-04T13:53:00.342Z,99799.69
2023-08-04T13:55:06.122Z,99810.56
2023-08-04T13:57:11.685Z,99820.89
2023-08-04T13:59:18.046Z,99812.45
2023-08-04T14:01:23.561Z,99807.95
2023-08-04T14:03:29.146Z,99801.94
2023-08-04T14:05:34.479Z,99798.57
2023-08-04T14:07:39.878Z,99800.42
2023-08-04T14:09:45.561Z,99798.64
2023-08-04T14:11:51.341Z,99791.66
2023-08-04T14:13:57.117Z,99795.57
2023-08-04T14:16:02.677Z,99803.35
2023-08-04T14:18:08.301Z,99805.58
2023-08-04T14:20:13.897Z,99809.94
2023-08-04T14:22:19.561Z,99808
2023-08-04T14:24:24.999Z,99818.91
2023-08-04T14:26:30.518Z,99814.59
2023-08-04T14:28:36.064Z,99809.03
2023-08-04T14:30:41.597Z,99804.89
2023-08-04T14:32:47.150Z,99810.77
2023-08-04T14:34:52.611Z,99814.89
2023-08-04T14:36:57.927Z,99817.52
2023-08-04T14:39:03.369Z,99815.86
2023-08-04T14:41:11.177Z,99819.02
2023-08-04T14:43:16.714Z,99824.08
2023-08-04T14:45:22.152Z,99826.2
2023-08-04T14:47:27.590Z,99822.02
2023-08-04T14:49:32.980Z,99819.31
2023-08-04T14:51:40.033Z,99818.95
2023-08-04T14:53:45.397Z,99821.03
2023-08-04T14:55:50.977Z,99817.22
2023-08-04T14:57:56.317Z,99815.3
2023-08-04T15:00:01.877Z,99815.38
2023-08-04T15:02:07.520Z,99817.78
2023-08-04T15:04:13.021Z,99814.04
2023-08-04T15:06:18.456Z,99810.66
2023-08-04T15:08:24.088Z,99802.7
2023-08-04T15:10:29.757Z,99804.89
2023-08-04T15:12:35.328Z,99805.51
2023-08-04T15:14:40.762Z,99801.62
2023-08-04T15:16:46.845Z,99799.91
2023-08-04T15:18:53.072Z,99798.39
2023-08-04T15:20:58.415Z,99796.68
2023-08-04T15:23:03.859Z,99798.95
2023-08-04T15:25:09.202Z,99800.61
2023-08-04T15:27:14.749Z,99802.1
2023-08-04T15:29:20.320Z,99800.2
2023-08-04T15:31:25.784Z,99800.83
2023-08-04T15:33:31.157Z,99799.58
2023-08-04T15:35:36.511Z,99800.83
2023-08-04T15:37:41.966Z,99800.57
2023-08-04T15:39:47.814Z,99800.44
2023-08-04T15:41:53.246Z,99797.12
2023-08-04T15:43:58.599Z,99792.66
2023-08-04T15:46:03.947Z,99792.73
2023-08-04T15:48:09.268Z,99794.8
2023-08-04T15:50:14.577Z,99790.26
2023-08-04T15:52:20.012Z,99787.32
2023-08-04T15:54:25.482Z,99785.89
2023-08-04T15:56:30.869Z,99787.28
2023-08-04T15:58:36.251Z,99780.91
2023-08-04T16:00:41.583Z,99784.3
2023-08-04T16:02:46.857Z,99785.48
2023-08-04T16:04:52.259Z,99779.54
2023-08-04T16:06:57.612Z,99786.3
2023-08-04T16:09:03.097Z,99785.86
2023-08-04T16:11:08.590Z,99787.23
2023-08-04T16:13:14.130Z,99788.83
2023-08-04T16:15:19.469Z,99785.25
2023-08-04T16:17:24.780Z,99790.16
2023-08-04T16:19:30.184Z,99784.16
2023-08-04T16:21:35.572Z,99786.22
2023-08-04T16:23:40.981Z,99791.78
2023-08-04T16:25:46.267Z,99798.16
2023-08-04T16:27:51.647Z,99801.3
2023-08-04T16:29:57.035Z,99809.88
2023-08-04T16:32:02.621Z,99806.97
2023-08-04T16:34:08.094Z,99816.05
2023-08-04T16:36:13.671Z,99810.61
2023-08-04T16:38:19.017Z,99815.45
2023-08-04T16:40:24.399Z,99817.13
2023-08-04T16:42:29.891Z,99815.47
2023-08-04T16:44:35.519Z,99817.23
2023-08-04T16:46:40.929Z,99818.72
2023-08-04T16:48:46.205Z,99817.4
2023-08-04T16:50:51.604Z,99814.58
2023-08-04T16:52:56.931Z,99822.05
2023-08-04T16:55:02.285Z,99812.06
2023-08-04T16:57:07.668Z,99815.36
2023-08-04T16:59:13.193Z,99819.04
2023-08-04T17:01:18.680Z,99810.67
2023-08-04T17:03:26.977Z,99807.98
2023-08-04T17:05:32.177Z,99808.22
2023-08-04T17:07:37.310Z,99804.33
2023-08-04T17:09:42.708Z,99804.17
2023-08-04T17:11:48.109Z,99806.7
2023-08-04T17:13:53.647Z,99804.52
2023-08-04T17:15:59.107Z,99804.29
2023-08-04T17:18:04.834Z,99797.94
2023-08-04T17:20:10.364Z,99796.48
2023-08-04T17:22:15.707Z,99796.86
2023-08-04T17:24:21.156Z,99791.73
2023-08-04T17:26:26.591Z,99787.14
2023-08-04T17:28:31.777Z,99788.51
2023-08-04T17:30:36.857Z,99788.73
2023-08-04T17:32:42.136Z,99787.22
2023-08-04T17:34:47.369Z,99790.23
2023-08-04T17:36:53.344Z,99800.1
2023-08-04T17:38:58.622Z,99799.99
2023-08-04T17:41:03.976Z,99808.34
2023-08-04T17:43:09.390Z,99801.53
2023-08-04T17:45:14.706Z,99811.08
2023-08-04T17:47:20.291Z,99816.32
2023-08-04T17:49:25.716Z,99821.75
2023-08-04T17:51:31.151Z,99828.86
2023-08-04T17:53:36.695Z,99824.77
2023-08-04T17:55:42.033Z,99827.05
2023-08-04T17:57:47.385Z,99829.91
2023-08-04T17:59:53.058Z,99833.63
2023-08-04T18:01:58.572Z,99834.2
2023-08-04T18:04:04.119Z,99831.02
2023-08-04T18:06:09.552Z,99836.34
2023-08-04T18:08:14.832Z,99834.43
2023-08-04T18:10:20.334Z,99838.8
2023-08-04T18:12:25.767Z,99835.45
2023-08-04T18:14:31.214Z,99833.86
2023-08-04T18:16:36.672Z,99834.64
2023-08-04T18:18:42.092Z,99832.24
2023-08-04T18:20:47.421Z,99834.04
2023-08-04T18:22:53.175Z,99833.36
2023-08-04T18:24:58.516Z,99829.22
2023-08-04T18:27:03.928Z,99839.87
2023-08-04T18:29:09.390Z,99837.36
2023-08-04T18:31:15.080Z,99847.92
2023-08-04T18:33:20.483Z,99841.2
2023-08-04T18:35:25.876Z,99850.02
2023-08-04T18:37:31.355Z,99850.17
2023-08-04T18:39:36.701Z,99852.97
2023-08-04T18:41:42.167Z,99853.83
2023-08-04T18:43:47.641Z,99861.47
2023-08-04T18:45:53.023Z,99875.16
2023-08-04T18:47:58.480Z,99876.59
2023-08-04T18:50:03.813Z,99872.19
2023-08-04T18:52:09.350Z,99872.48
2023-08-04T18:54:14.777Z,99874.23
2023-08-04T18:56:20.134Z,99874.78
2023-08-04T18:58:25.461Z,99879.94
2023-08-04T19:00:30.837Z,99876.97
2023-08-04T19:02:36.509Z,99884.27
2023-08-04T19:04:42.156Z,99883.59
2023-08-04T19:06:47.725Z,99883.18
2023-08-04T19:08:53.474Z,99886.66
2023-08-04T19:10:58.893Z,99888.14
2023-08-04T19:13:04.220Z,99890.15
2023-08-04T19:15:09.710Z,99892.75
2023-08-04T19:17:15.146Z,99896.73
2023-08-04T19:19:20.403Z,99899.13
2023-08-04T19:21:25.712Z,99898.7
2023-08-04T19:23:31.107Z,99896.46
2023-08-04T19:25:36.409Z,99894.14
2023-08-04T19:27:41.829Z,99886.84
2023-08-04T19:29:47.233Z,99889.59
2023-08-04T19:31:52.528Z,99896.77
2023-08-04T19:33:57.945Z,99903.22
2023-08-04T19:36:03.278Z,99901.56
2023-08-04T19:38:08.731Z,99907.91
2023-08-04T19:40:14.308Z,99908.56
2023-08-04T19:42:19.532Z,99916.78
2023-08-04T19:44:24.852Z,99914.11
2023-08-04T19:46:30.415Z,99915.25
2023-08-04T19:48:35.935Z,99921.48
2023-08-04T19:50:41.481Z,99925.72
2023-08-04T19:52:46.904Z,99925.55
2023-08-04T19:54:52.161Z,99927.63
2023-08-04T19:56:57.491Z,99928.97
2023-08-04T19:59:02.984Z,99931.29
2023-08-04T20:01:08.344Z,99922.55
2023-08-04T20:03:13.762Z,99921.17
2023-08-04T20:05:19.257Z,99917.98
2023-08-04T20:07:24.864Z,99920.77
2023-08-04T20:09:30.228Z,99932.17
2023-08-04T20:11:35.676Z,99931.27
2023-08-04T20:13:41.132Z,99938.35
2023-08-04T20:15:46.674Z,99938.05
2023-08-04T20:17:52.333Z,99943.88
2023-08-04T20:19:57.736Z,99944.06
2023-08-04T20:22:03.181Z,99945
2023-08-04T20:24:08.650Z,99947.23
2023-08-04T20:26:13.976Z,99951.06
2023-08-04T20:28:19.406Z,99951.63
2023-08-04T20:30:24.745Z,99952.95
2023-08-04T20:32:30.223Z,99953.66
2023-08-04T20:34:35.933Z,99958.59
2023-08-04T20:36:41.576Z,99961.23
2023-08-04T20:38:47.339Z,99963.75
2023-08-04T20:40:52.765Z,99957.9
2023-08-04T20:42:58.227Z,99954.48
2023-08-04T20:45:03.658Z,99960.17
2023-08-04T20:47:09.188Z,99955.89
2023-08-04T20:49:14.534Z,99956.08
2023-08-04T20:51:19.895Z,99957.1
2023-08-04T20:53:25.306Z,99955.27
2023-08-04T20:55:30.850Z,99956.59
2023-08-04T20:57:36.233Z,99950.92
2023-08-04T20:59:41.520Z,99951.7
2023-08-04T21:01:47.126Z,99949.42
2023-08-04T21:03:52.630Z,99949.36
2023-08-04T21:05:58.309Z,99945.58
2023-08-04T21:08:03.698Z,99944.93
2023-08-04T21:10:09.009Z,99941.88
2023-08-04T21:12:14.477Z,99935.81
2023-08-04T21:14:19.857Z,99940.73
2023-08-04T21:16:25.109Z,99948.88
2023-08-04T21:18:30.716Z,99951.3
2023-08-04T21:20:35.971Z,99959.74
2023-08-04T21:22:41.524Z,99959.64
2023-08-04T21:24:46.862Z,99957.33
2023-08-04T21:26:52.557Z,99953.33
2023-08-04T21:28:57.787Z,99953.22
2023-08-04T21:31:03.109Z,99950.52
2023-08-04T21:33:08.611Z,99954.29
2023-08-04T21:35:13.922Z,99952.73
2023-08-04T21:37:19.469Z,99954.75
2023-08-04T21:39:24.799Z,99951.91
2023-08-04T21:41:30.218Z,99956.15
2023-08-04T21:43:35.647Z,99954.73
2023-08-04T21:45:41.012Z,99957.87
2023-08-04T21:47:46.506Z,99959.08
2023-08-04T21:49:51.889Z,99959.23
2023-08-04T21:51:57.329Z,99957.55
2023-08-04T21:54:02.656Z,99950.48
2023-08-04T21:56:08.024Z,99946.55
2023-08-04T21:58:13.548Z,99950.15
2023-08-04T22:00:18.978Z,99955.3
2023-08-04T22:02:24.544Z,99956.72
2023-08-04T22:04:30.091Z,99950.82
2023-08-04T22:06:35.406Z,99949.88
2023-08-04T22:08:40.968Z,99949.06
2023-08-04T22:10:46.318Z,99945.45
2023-08-04T22:12:51.655Z,99945
2023-08-04T22:14:57.027Z,99954.52
2023-08-04T22:17:02.559Z,99954.23
2023-08-04T22:19:07.993Z,99959.24
2023-08-04T22:21:13.401Z,99955.24
2023-08-04T22:23:18.845Z,99954.7
2023-08-04T22:25:24.293Z,99958.35
2023-08-04T22:27:29.678Z,99956.5
2023-08-04T22:29:34.919Z,99953.17
2023-08-04T22:31:40.448Z,99950.24
2023-08-04T22:33:45.847Z,99947.28
2023-08-04T22:35:51.335Z,99947.59
2023-08-04T22:37:56.731Z,99946.03
2023-08-04T22:40:02.113Z,99944.6
2023-08-04T22:42:07.408Z,99940.05
2023-08-04T22:44:14.973Z,99935.2
2023-08-04T22:46:20.349Z,99930.92
2023-08-04T22:48:25.828Z,99928.89
2023-08-04T22:50:31.122Z,99930.52
2023-08-04T22:52:36.666Z,99927
2023-08-04T22:54:41.999Z,99925.8
2023-08-04T22:56:47.624Z,99926.25
2023-08-04T22:58:53.436Z,99923.3
2023-08-04T23:00:58.708Z,99919.13
2023-08-04T23:03:04.258Z,99916.69
2023-08-04T23:05:09.601Z,99914.56
2023-08-04T23:07:15.198Z,99919.25
2023-08-04T23:09:20.491Z,99926.87
2023-08-04T23:11:25.925Z,99936.16
2023-08-04T23:13:31.261Z,99939.68
2023-08-04T23:15:36.506Z,99945.42
2023-08-04T23:17:42.085Z,99944.45
2023-08-04T23:19:47.676Z,99940.28
2023-08-04T23:21:53.055Z,99937.22
2023-08-04T23:23:58.387Z,99945.95
2023-08-04T23:26:03.707Z,99944.81
2023-08-04T23:28:09.104Z,99945.37
2023-08-04T23:30:14.585Z,99943.05
2023-08-04T23:32:19.987Z,99939.52
2023-08-04T23:34:25.366Z,99939.23
2023-08-04T23:36:30.810Z,99941.34
2023-08-04T23:38:36.249Z,99940.55
2023-08-04T23:40:41.693Z,99940.07
2023-08-04T23:42:46.969Z,99937.11
2023-08-04T23:44:52.463Z,99929.94
2023-08-04T23:46:57.903Z,99929.77
2023-08-04T23:49:03.340Z,99931.17
2023-08-04T23:51:08.828Z,99931.89
2023-08-04T23:53:14.170Z,99929.44
2023-08-04T23:55:19.573Z,99927.7
2023-08-04T23:57:24.909Z,99920.26
2023-08-04T23:59:30.252Z,99919.75
